createdAt,value
2023-01-23T00:00:22.107Z,88.26
2023-01-23T00:01:22.058Z,88.26
2023-01-23T00:02:22.050Z,87.94
2023-01-23T00:03:21.999Z,87.52
2023-01-23T00:04:22.066Z,87.52
2023-01-23T00:05:21.984Z,87.62
2023-01-23T00:06:21.992Z,87.84
2023-01-23T00:07:21.978Z,87.73
2023-01-23T00:08:21.993Z,87.52
2023-01-23T00:09:21.930Z,87.52
2023-01-23T00:10:22.082Z,87.41
2023-01-23T00:11:21.943Z,87.20
2023-01-23T00:12:21.908Z,87.09
2023-01-23T00:13:21.867Z,86.88
2023-01-23T00:14:21.875Z,86.82
2023-01-23T00:15:21.867Z,86.60
2023-01-23T00:16:21.839Z,86.60
2023-01-23T00:17:21.829Z,86.40
2023-01-23T00:18:21.862Z,86.18
2023-01-23T00:19:21.806Z,85.76
2023-01-23T00:20:22.019Z,85.34
2023-01-23T00:21:21.777Z,85.02
2023-01-23T00:22:21.819Z,84.81
2023-01-23T00:23:21.738Z,84.81
2023-01-23T00:24:21.801Z,84.70
2023-01-23T00:25:21.729Z,84.91
2023-01-23T00:26:21.703Z,85.02
2023-01-23T00:27:21.801Z,85.23
2023-01-23T00:28:21.680Z,85.16
2023-01-23T00:29:21.659Z,84.84
2023-01-23T00:30:21.705Z,85.38
2023-01-23T00:31:21.759Z,86.01
2023-01-23T00:32:21.670Z,86.16
2023-01-23T00:33:21.648Z,85.94
2023-01-23T00:34:21.630Z,86.26
2023-01-23T00:35:21.590Z,86.79
2023-01-23T00:36:21.588Z,87.00
2023-01-23T00:37:21.574Z,87.00
2023-01-23T00:38:21.681Z,86.68
2023-01-23T00:39:21.553Z,86.19
2023-01-23T00:40:21.951Z,85.77
2023-01-23T00:41:21.515Z,85.46
2023-01-23T00:42:21.493Z,85.56
2023-01-23T00:43:21.520Z,85.88
2023-01-23T00:44:21.467Z,86.41
2023-01-23T00:45:21.479Z,86.41
2023-01-23T00:46:21.543Z,85.88
2023-01-23T00:47:21.443Z,85.56
2023-01-23T00:48:21.437Z,85.24
2023-01-23T00:49:24.452Z,85.14
2023-01-23T00:50:21.602Z,85.24
2023-01-23T00:51:21.414Z,84.82
2023-01-23T00:52:21.376Z,84.39
2023-01-23T00:53:21.360Z,84.61
2023-01-23T00:54:21.391Z,84.61
2023-01-23T00:55:21.339Z,84.61
2023-01-23T00:56:21.313Z,83.59
2023-01-23T00:57:21.308Z,82.74
2023-01-23T00:58:21.420Z,82.64
2023-01-23T00:59:21.287Z,82.74
2023-01-23T01:00:21.575Z,82.85
2023-01-23T01:01:21.298Z,82.42
2023-01-23T01:02:21.253Z,81.72
2023-01-23T01:03:21.295Z,82.35
2023-01-23T01:04:21.255Z,82.99
2023-01-23T01:05:21.206Z,83.73
2023-01-23T01:06:21.228Z,84.51
2023-01-23T01:07:21.199Z,85.68
2023-01-23T01:08:21.170Z,86.46
2023-01-23T01:09:21.161Z,86.77
2023-01-23T01:10:21.460Z,87.34
2023-01-23T01:11:21.125Z,88.19
2023-01-23T01:12:21.107Z,88.72
2023-01-23T01:13:21.153Z,88.72
2023-01-23T01:14:21.129Z,88.40
2023-01-23T01:15:21.095Z,87.55
2023-01-23T01:16:21.125Z,87.13
2023-01-23T01:17:21.057Z,86.60
2023-01-23T01:18:21.044Z,86.39
2023-01-23T01:19:21.058Z,86.07
2023-01-23T01:20:21.348Z,85.96
2023-01-23T01:21:20.990Z,85.86
2023-01-23T01:22:20.991Z,85.64
2023-01-23T01:23:20.984Z,85.01
2023-01-23T01:24:20.975Z,84.69
2023-01-23T01:25:20.937Z,84.59
2023-01-23T01:26:20.945Z,84.27
2023-01-23T01:27:20.939Z,84.20
2023-01-23T01:28:20.980Z,84.09
2023-01-23T01:29:20.939Z,83.99
2023-01-23T01:30:21.254Z,84.06
2023-01-23T01:31:20.969Z,84.27
2023-01-23T01:32:20.896Z,84.38
2023-01-23T01:33:20.857Z,84.48
2023-01-23T01:34:23.528Z,84.48
2023-01-23T01:35:20.901Z,84.27
2023-01-23T01:36:20.844Z,84.06
2023-01-23T01:37:20.829Z,84.38
2023-01-23T01:38:20.798Z,84.48
2023-01-23T01:39:20.830Z,84.69
2023-01-23T01:40:21.191Z,84.27
2023-01-23T01:41:20.767Z,84.16
2023-01-23T01:42:20.770Z,83.78
2023-01-23T01:43:20.735Z,83.99
2023-01-23T01:44:20.783Z,84.31
2023-01-23T01:45:20.683Z,84.31
2023-01-23T01:46:20.789Z,84.41
2023-01-23T01:47:20.661Z,84.73
2023-01-23T01:48:20.811Z,85.05
2023-01-23T01:49:20.729Z,85.26
2023-01-23T01:50:20.998Z,83.81
2023-01-23T01:51:20.678Z,82.54
2023-01-23T01:52:20.634Z,81.90
2023-01-23T01:53:20.641Z,82.01
2023-01-23T01:54:20.612Z,82.01
2023-01-23T01:55:20.577Z,82.22
2023-01-23T01:56:20.610Z,82.33
2023-01-23T01:57:20.572Z,82.65
2023-01-23T01:58:20.537Z,82.75
2023-01-23T01:59:20.518Z,83.28
2023-01-23T06:43:32.988Z,89.56
2023-01-23T06:44:33.949Z,89.56
2023-01-23T06:45:33.931Z,89.56
2023-01-23T06:46:34.022Z,89.46
2023-01-23T06:47:33.948Z,89.46
2023-01-23T06:48:33.939Z,89.46
2023-01-23T06:49:46.575Z,89.35
2023-01-23T06:50:33.864Z,89.35
2023-01-23T06:51:33.894Z,89.46
2023-01-23T06:52:33.897Z,89.46
2023-01-23T06:53:33.884Z,89.46
2023-01-23T06:54:33.838Z,89.46
2023-01-23T06:55:33.829Z,89.46
2023-01-23T06:56:33.820Z,89.35
2023-01-23T06:57:33.819Z,89.25
2023-01-23T06:58:33.797Z,89.35
2023-01-23T06:59:33.826Z,89.25
2023-01-23T07:00:33.737Z,89.14
2023-01-23T07:01:33.809Z,89.46
2023-01-23T07:02:33.759Z,89.46
2023-01-23T07:03:33.738Z,89.56
2023-01-23T07:04:33.733Z,89.46
2023-01-23T07:05:33.687Z,89.35
2023-01-23T07:06:33.757Z,89.14
2023-01-23T07:07:33.699Z,89.00
2023-01-23T07:08:33.699Z,89.00
2023-01-23T07:09:33.654Z,89.00
2023-01-23T07:10:33.652Z,89.00
2023-01-23T07:11:33.659Z,89.00
2023-01-23T07:12:38.821Z,88.89
2023-01-23T07:13:33.629Z,88.78
2023-01-23T07:14:33.599Z,88.68
2023-01-23T07:15:33.623Z,88.68
2023-01-23T07:16:33.531Z,88.78
2023-01-23T07:17:33.523Z,89.10
2023-01-23T07:18:33.556Z,89.10
2023-01-23T07:19:33.521Z,89.10
2023-01-23T07:20:33.511Z,88.89
2023-01-23T07:21:33.477Z,88.78
2023-01-23T07:22:33.464Z,88.78
2023-01-23T07:23:33.462Z,88.89
2023-01-23T07:24:33.431Z,88.78
2023-01-23T07:25:33.427Z,89.00
2023-01-23T07:26:33.417Z,89.00
2023-01-23T07:27:33.383Z,89.00
2023-01-23T07:28:33.381Z,89.00
2023-01-23T07:29:33.398Z,88.89
2023-01-23T07:30:33.409Z,88.78
2023-01-23T07:31:33.384Z,88.89
2023-01-23T07:32:33.419Z,89.00
2023-01-23T07:33:33.353Z,88.89
2023-01-23T07:34:33.364Z,88.89
2023-01-23T07:35:33.319Z,89.00
2023-01-23T07:36:33.273Z,89.00
2023-01-23T07:37:33.272Z,88.89
2023-01-23T07:38:33.274Z,88.75
2023-01-23T07:39:33.261Z,88.85
2023-01-23T07:40:33.236Z,88.75
2023-01-23T07:41:33.276Z,88.64
2023-01-23T07:42:33.224Z,88.53
2023-01-23T07:43:33.196Z,88.57
2023-01-23T07:44:33.228Z,88.53
2023-01-23T07:45:33.159Z,88.64
2023-01-23T07:46:33.181Z,88.53
2023-01-23T07:47:33.143Z,88.53
2023-01-23T07:48:33.125Z,88.53
2023-01-23T07:49:33.129Z,88.36
2023-01-23T07:50:33.098Z,88.46
2023-01-23T07:51:33.101Z,88.78
2023-01-23T07:52:33.099Z,89.10
2023-01-23T07:53:33.063Z,89.52
2023-01-23T07:54:33.062Z,89.63
2023-01-23T07:55:33.055Z,89.73
2023-01-23T07:56:33.024Z,89.73
2023-01-23T07:57:33.008Z,89.63
2023-01-23T07:58:32.983Z,89.52
2023-01-23T07:59:33.027Z,89.52
2023-01-23T08:00:33.155Z,89.63
2023-01-23T08:01:32.970Z,89.52
2023-01-23T08:02:32.940Z,89.52
2023-01-23T08:03:32.939Z,89.73
2023-01-23T08:04:32.928Z,89.73
2023-01-23T08:05:32.901Z,89.42
2023-01-23T08:06:32.891Z,89.42
2023-01-23T08:07:32.896Z,89.20
2023-01-23T08:08:32.865Z,89.20
2023-01-23T08:09:32.844Z,89.52
2023-01-23T08:10:32.874Z,89.73
2023-01-23T08:11:34.382Z,89.73
2023-01-23T08:12:32.815Z,89.69
2023-01-23T08:13:32.818Z,89.69
2023-01-23T08:14:32.788Z,89.59
2023-01-23T08:15:32.788Z,89.48
2023-01-23T08:16:32.857Z,89.48
2023-01-23T08:17:32.739Z,89.34
2023-01-23T08:18:32.780Z,89.34
2023-01-23T08:19:32.722Z,89.44
2023-01-23T08:20:32.698Z,89.54
2023-01-23T08:21:32.722Z,89.65
2023-01-23T08:22:32.677Z,89.65
2023-01-23T08:23:32.678Z,89.54
2023-01-23T08:24:32.655Z,89.34
2023-01-23T08:25:32.695Z,89.02
2023-01-23T08:26:32.638Z,88.92
2023-01-23T08:27:32.632Z,89.23
2023-01-23T08:28:32.609Z,89.29
2023-01-23T08:29:32.603Z,89.19
2023-01-23T08:30:32.686Z,89.09
2023-01-23T08:31:32.674Z,89.19
2023-01-23T08:32:32.564Z,89.19
2023-01-23T08:33:32.542Z,89.19
2023-01-23T08:34:32.535Z,89.40
2023-01-23T08:35:32.542Z,89.61
2023-01-23T08:36:32.535Z,89.61
2023-01-23T08:37:32.502Z,89.51
2023-01-23T08:38:32.493Z,89.51
2023-01-23T08:39:32.521Z,89.51
2023-01-23T08:40:32.460Z,89.68
2023-01-23T08:41:32.425Z,89.68
2023-01-23T08:42:32.488Z,89.78
2023-01-23T08:43:32.405Z,89.68
2023-01-23T08:44:32.405Z,89.47
2023-01-23T08:45:32.482Z,89.68
2023-01-23T08:46:32.382Z,89.68
2023-01-23T08:47:32.366Z,89.36
2023-01-23T08:48:32.351Z,89.25
2023-01-23T08:49:32.340Z,89.11
2023-01-23T08:50:32.352Z,88.90
2023-01-23T08:51:32.308Z,89.00
2023-01-23T08:52:32.326Z,89.42
2023-01-23T08:53:32.285Z,89.53
2023-01-23T08:54:32.298Z,89.84
2023-01-23T08:55:32.262Z,89.84
2023-01-23T08:56:32.225Z,90.01
2023-01-23T08:57:32.245Z,89.81
2023-01-23T08:58:32.216Z,89.49
2023-01-23T08:59:32.242Z,89.28
2023-01-23T09:00:32.201Z,89.17
2023-01-23T09:01:32.183Z,89.07
2023-01-23T09:02:32.170Z,88.96
2023-01-23T09:03:32.193Z,88.92
2023-01-23T09:04:32.150Z,88.82
2023-01-23T09:05:32.136Z,88.82
2023-01-23T09:06:32.130Z,88.40
2023-01-23T09:07:32.106Z,88.18
2023-01-23T09:08:32.094Z,87.98
2023-01-23T09:09:32.078Z,87.98
2023-01-23T09:10:32.070Z,87.87
2023-01-23T09:11:32.068Z,88.29
2023-01-23T09:12:32.083Z,88.60
2023-01-23T09:13:32.037Z,88.60
2023-01-23T09:14:32.101Z,88.71
2023-01-23T09:15:31.999Z,88.60
2023-01-23T09:16:32.032Z,88.71
2023-01-23T09:17:32.076Z,88.71
2023-01-23T09:18:31.967Z,88.50
2023-01-23T09:19:31.960Z,88.29
2023-01-23T09:20:31.933Z,88.08
2023-01-23T09:21:31.934Z,88.29
2023-01-23T09:22:31.930Z,88.18
2023-01-23T09:23:31.877Z,88.18
2023-01-23T09:24:31.896Z,88.08
2023-01-23T09:25:31.937Z,87.98
2023-01-23T09:26:31.868Z,87.98
2023-01-23T09:27:31.841Z,87.98
2023-01-23T09:28:31.849Z,88.18
2023-01-23T09:29:31.829Z,87.98
2023-01-23T09:30:31.881Z,87.87
2023-01-23T09:31:31.812Z,87.62
2023-01-23T09:32:31.775Z,87.83
2023-01-23T09:33:31.769Z,87.83
2023-01-23T09:34:31.775Z,88.04
2023-01-23T09:35:31.775Z,88.04
2023-01-23T09:36:42.375Z,87.83
2023-01-23T09:37:31.817Z,87.93
2023-01-23T09:38:31.696Z,87.79
2023-01-23T09:39:31.684Z,88.00
2023-01-23T09:40:31.705Z,87.90
2023-01-23T09:41:31.670Z,88.00
2023-01-23T09:42:31.629Z,88.10
2023-01-23T09:43:31.641Z,87.68
2023-01-23T09:44:31.615Z,86.85
2023-01-23T09:45:31.633Z,86.85
2023-01-23T09:46:31.579Z,86.53
2023-01-23T09:47:31.574Z,86.53
2023-01-23T09:48:31.556Z,86.53
2023-01-23T09:49:31.562Z,86.32
2023-01-23T09:50:31.569Z,86.85
2023-01-23T09:51:31.533Z,87.48
2023-01-23T09:52:31.498Z,88.00
2023-01-23T09:53:31.496Z,87.75
2023-01-23T09:54:31.490Z,87.33
2023-01-23T09:55:31.458Z,87.54
2023-01-23T09:56:31.475Z,86.13
2023-01-23T09:57:31.515Z,85.61
2023-01-23T09:58:31.443Z,85.50
2023-01-23T09:59:31.418Z,85.61
2023-01-23T10:00:31.395Z,85.82
2023-01-23T10:01:31.482Z,86.10
2023-01-23T10:02:31.541Z,85.89
2023-01-23T10:03:31.378Z,85.05
2023-01-23T10:04:31.382Z,85.01
2023-01-23T10:05:31.353Z,84.80
2023-01-23T10:06:31.351Z,84.69
2023-01-23T10:07:31.416Z,85.08
2023-01-23T10:08:31.301Z,84.86
2023-01-23T10:09:31.296Z,84.55
2023-01-23T10:10:31.299Z,83.78
2023-01-23T10:11:31.267Z,83.04
2023-01-23T10:12:31.254Z,83.15
2023-01-23T10:13:31.229Z,82.83
2023-01-23T10:14:31.210Z,83.15
2023-01-23T10:15:31.244Z,83.15
2023-01-23T10:16:41.420Z,83.25
2023-01-23T10:17:31.190Z,83.25
2023-01-23T10:18:31.199Z,83.04
2023-01-23T10:19:31.163Z,83.36
2023-01-23T10:20:31.151Z,83.47
2023-01-23T10:21:31.137Z,83.88
2023-01-23T10:22:31.119Z,83.98
2023-01-23T10:23:31.106Z,83.88
2023-01-23T10:24:37.972Z,83.57
2023-01-23T10:25:31.078Z,83.57
2023-01-23T10:26:31.776Z,83.04
2023-01-23T10:27:31.042Z,83.15
2023-01-23T10:28:31.042Z,82.83
2023-01-23T10:29:31.065Z,83.15
2023-01-23T10:30:31.301Z,83.04
2023-01-23T10:31:31.124Z,82.73
2023-01-23T10:32:30.999Z,82.73
2023-01-23T10:33:30.964Z,83.15
2023-01-23T10:34:30.957Z,83.67
2023-01-23T10:35:30.977Z,83.78
2023-01-23T10:36:41.988Z,83.15
2023-01-23T10:37:31.655Z,82.83
2023-01-23T10:38:30.910Z,83.04
2023-01-23T10:39:30.920Z,83.15
2023-01-23T10:40:30.906Z,83.36
2023-01-23T10:41:30.856Z,83.36
2023-01-23T10:42:30.842Z,82.73
2023-01-23T10:43:30.841Z,82.73
2023-01-23T10:44:30.862Z,82.73
2023-01-23T10:45:30.853Z,82.83
2023-01-23T10:46:30.902Z,82.94
2023-01-23T10:47:33.133Z,83.15
2023-01-23T10:48:30.770Z,83.25
2023-01-23T10:49:30.798Z,83.47
2023-01-23T10:50:30.782Z,83.47
2023-01-23T10:51:30.833Z,83.25
2023-01-23T10:52:30.723Z,83.15
2023-01-23T10:53:30.700Z,83.25
2023-01-23T10:54:32.667Z,83.25
2023-01-23T10:55:30.720Z,83.25
2023-01-23T10:56:30.672Z,83.50
2023-01-23T10:57:30.663Z,83.88
2023-01-23T10:58:30.678Z,83.98
2023-01-23T10:59:30.636Z,83.67
2023-01-23T11:00:30.622Z,83.78
2023-01-23T11:01:30.666Z,83.67
2023-01-23T11:02:30.810Z,83.67
2023-01-23T11:03:30.570Z,84.09
2023-01-23T11:04:30.603Z,84.09
2023-01-23T11:05:31.069Z,83.88
2023-01-23T11:06:30.533Z,83.67
2023-01-23T11:07:30.534Z,83.88
2023-01-23T11:08:30.534Z,83.78
2023-01-23T11:09:30.495Z,83.36
2023-01-23T11:10:30.501Z,82.79
2023-01-23T11:11:30.495Z,82.69
2023-01-23T11:12:30.459Z,82.79
2023-01-23T11:13:30.511Z,82.79
2023-01-23T11:14:30.417Z,83.22
2023-01-23T11:15:30.504Z,83.11
2023-01-23T11:16:30.406Z,83.22
2023-01-23T11:17:30.388Z,83.22
2023-01-23T11:18:30.413Z,83.42
2023-01-23T11:19:30.371Z,83.74
2023-01-23T11:20:30.366Z,83.95
2023-01-23T11:21:30.372Z,84.05
2023-01-23T11:22:30.338Z,84.05
2023-01-23T11:23:30.320Z,83.74
2023-01-23T11:24:39.732Z,83.53
2023-01-23T11:25:30.291Z,83.53
2023-01-23T11:26:30.268Z,83.53
2023-01-23T11:27:30.263Z,83.74
2023-01-23T11:28:30.258Z,83.84
2023-01-23T11:29:30.243Z,84.27
2023-01-23T11:30:30.264Z,84.37
2023-01-23T11:31:30.367Z,84.37
2023-01-23T11:32:30.324Z,84.47
2023-01-23T11:33:30.181Z,84.58
2023-01-23T11:34:30.198Z,84.79
2023-01-23T11:35:30.155Z,84.96
2023-01-23T11:36:30.144Z,85.17
2023-01-23T11:37:30.131Z,84.85
2023-01-23T11:38:31.247Z,84.54
2023-01-23T11:39:30.109Z,84.22
2023-01-23T11:40:30.122Z,84.01
2023-01-23T11:41:30.084Z,84.12
2023-01-23T11:42:30.078Z,84.01
2023-01-23T11:43:30.057Z,83.70
2023-01-23T11:44:35.001Z,83.59
2023-01-23T11:45:30.045Z,83.39
2023-01-23T11:46:30.110Z,83.91
2023-01-23T11:47:30.030Z,83.91
2023-01-23T11:48:29.996Z,83.81
2023-01-23T11:49:29.971Z,84.01
2023-01-23T11:50:29.985Z,84.44
2023-01-23T11:51:30.027Z,84.54
2023-01-23T11:52:29.938Z,84.39
2023-01-23T11:53:41.483Z,83.98
2023-01-23T11:54:29.922Z,83.87
2023-01-23T11:55:29.899Z,83.45
2023-01-23T11:56:29.895Z,83.25
2023-01-23T11:57:29.904Z,83.25
2023-01-23T11:58:30.780Z,83.14
2023-01-23T11:59:29.841Z,83.35
2023-01-23T12:00:29.831Z,83.25
2023-01-23T12:01:29.850Z,83.56
2023-01-23T12:02:29.823Z,83.03
2023-01-23T12:03:29.952Z,83.03
2023-01-23T12:04:29.796Z,83.18
2023-01-23T12:05:29.794Z,83.70
2023-01-23T12:06:29.760Z,83.81
2023-01-23T12:07:29.752Z,84.44
2023-01-23T12:08:29.721Z,84.54
2023-01-23T12:09:29.749Z,84.64
2023-01-23T12:10:29.707Z,84.61
2023-01-23T12:11:29.674Z,84.19
2023-01-23T12:12:29.664Z,84.29
2023-01-23T12:13:29.689Z,84.50
2023-01-23T12:14:29.670Z,84.19
2023-01-23T12:15:29.647Z,83.87
2023-01-23T12:16:29.708Z,84.08
2023-01-23T12:17:29.610Z,84.39
2023-01-23T12:18:29.620Z,84.29
2023-01-23T12:19:29.567Z,83.66
2023-01-23T12:20:29.596Z,83.87
2023-01-23T12:21:29.543Z,83.66
2023-01-23T12:22:29.594Z,83.77
2023-01-23T12:23:29.522Z,83.21
2023-01-23T12:24:29.536Z,83.10
2023-01-23T12:25:29.553Z,83.31
2023-01-23T12:26:29.482Z,83.35
2023-01-23T12:27:29.489Z,83.66
2023-01-23T12:28:29.444Z,83.56
2023-01-23T12:29:29.434Z,83.56
2023-01-23T12:30:29.461Z,83.66
2023-01-23T12:31:29.596Z,83.73
2023-01-23T12:32:29.394Z,83.66
2023-01-23T12:33:29.419Z,83.56
2023-01-23T12:34:29.379Z,83.56
2023-01-23T12:35:29.391Z,83.35
2023-01-23T12:36:29.336Z,83.35
2023-01-23T12:37:30.942Z,83.45
2023-01-23T12:38:29.328Z,83.77
2023-01-23T12:39:29.311Z,83.98
2023-01-23T12:40:29.334Z,84.08
2023-01-23T12:41:29.289Z,83.98
2023-01-23T12:42:29.263Z,83.77
2023-01-23T12:43:29.274Z,83.66
2023-01-23T12:44:29.238Z,83.77
2023-01-23T12:45:29.251Z,83.87
2023-01-23T12:46:29.252Z,83.98
2023-01-23T12:47:29.218Z,83.87
2023-01-23T12:48:29.196Z,83.98
2023-01-23T12:49:29.193Z,83.98
2023-01-23T12:50:29.173Z,84.29
2023-01-23T12:51:29.205Z,83.87
2023-01-23T12:52:29.147Z,83.56
2023-01-23T12:53:29.153Z,83.66
2023-01-23T12:54:29.116Z,83.25
2023-01-23T12:55:29.095Z,83.03
2023-01-23T12:56:29.121Z,83.03
2023-01-23T12:57:40.226Z,83.25
2023-01-23T12:58:29.087Z,83.70
2023-01-23T12:59:29.090Z,83.98
2023-01-23T13:00:29.045Z,83.87
2023-01-23T13:01:29.046Z,83.56
2023-01-23T13:02:29.177Z,83.70
2023-01-23T13:03:37.240Z,83.77
2023-01-23T13:04:29.018Z,83.98
2023-01-23T13:05:28.988Z,83.98
2023-01-23T13:06:28.973Z,83.77
2023-01-23T13:07:28.980Z,83.77
2023-01-23T13:08:29.129Z,83.77
2023-01-23T13:09:28.928Z,83.77
2023-01-23T13:10:28.895Z,83.98
2023-01-23T13:11:28.909Z,83.56
2023-01-23T13:12:29.029Z,83.35
2023-01-23T13:13:28.900Z,83.14
2023-01-23T13:14:33.106Z,83.25
2023-01-23T13:15:39.623Z,83.25
2023-01-23T13:16:28.859Z,83.35
2023-01-23T13:17:28.823Z,83.56
2023-01-23T13:18:28.810Z,83.77
2023-01-23T13:19:28.781Z,83.66
2023-01-23T13:20:28.755Z,83.66
2023-01-23T13:21:28.788Z,83.56
2023-01-23T13:22:32.278Z,83.56
2023-01-23T13:23:28.749Z,83.14
2023-01-23T13:24:28.712Z,83.35
2023-01-23T13:25:28.703Z,83.45
2023-01-23T13:26:28.697Z,83.35
2023-01-23T13:27:28.708Z,83.56
2023-01-23T13:28:35.425Z,83.59
2023-01-23T13:29:28.648Z,83.91
2023-01-23T13:30:28.756Z,83.91
2023-01-23T13:31:28.739Z,84.01
2023-01-23T13:32:28.740Z,84.12
2023-01-23T13:33:28.621Z,84.33
2023-01-23T13:34:28.640Z,84.33
2023-01-23T13:35:28.557Z,84.54
2023-01-23T13:36:28.565Z,84.29
2023-01-23T13:37:28.567Z,84.29
2023-01-23T13:38:28.544Z,84.08
2023-01-23T13:39:28.532Z,84.19
2023-01-23T13:40:28.495Z,84.08
2023-01-23T13:41:28.507Z,83.87
2023-01-23T13:42:28.482Z,83.77
2023-01-23T13:43:28.463Z,83.77
2023-01-23T13:44:40.217Z,83.98
2023-01-23T13:45:28.542Z,83.87
2023-01-23T13:46:28.424Z,83.87
2023-01-23T14:20:40.429Z,85.59
2023-01-23T14:21:41.688Z,85.69
2023-01-23T14:22:41.357Z,85.69
2023-01-23T14:23:41.365Z,85.69
2023-01-23T14:24:41.336Z,85.80
2023-01-23T14:25:41.364Z,85.90
2023-01-23T14:26:41.338Z,85.90
2023-01-23T14:27:52.942Z,86.32
2023-01-23T14:28:41.311Z,86.43
2023-01-23T14:29:41.263Z,86.43
2023-01-23T14:30:41.255Z,86.43
2023-01-23T14:31:41.372Z,86.53
2023-01-23T14:32:41.272Z,86.63
2023-01-23T14:33:41.219Z,86.63
2023-01-23T14:34:41.224Z,86.32
2023-01-23T14:35:41.213Z,86.11
2023-01-23T14:36:41.209Z,86.00
2023-01-23T14:37:41.220Z,86.11
2023-01-23T14:38:41.159Z,86.43
2023-01-23T14:39:44.104Z,86.53
2023-01-23T14:40:50.228Z,86.32
2023-01-23T14:41:41.587Z,86.11
2023-01-23T14:42:41.113Z,85.90
2023-01-23T14:43:41.084Z,86.00
2023-01-23T14:44:41.076Z,86.11
2023-01-23T14:45:41.113Z,86.11
2023-01-23T14:46:41.061Z,86.00
2023-01-23T14:47:42.357Z,85.90
2023-01-23T14:48:41.064Z,85.90
2023-01-23T14:49:41.011Z,85.59
2023-01-23T14:50:41.025Z,85.38
2023-01-23T14:51:40.990Z,85.27
2023-01-23T14:52:40.994Z,85.27
2023-01-23T14:53:40.964Z,85.69
2023-01-23T14:54:43.822Z,85.59
2023-01-23T14:55:40.953Z,85.69
2023-01-23T14:56:41.032Z,85.69
2023-01-23T14:57:40.926Z,85.63
2023-01-23T14:58:40.899Z,85.59
2023-01-23T14:59:40.884Z,85.59
2023-01-23T15:00:40.899Z,85.83
2023-01-23T15:01:40.925Z,85.83
2023-01-23T15:02:40.927Z,86.05
2023-01-23T15:03:40.837Z,86.36
2023-01-23T15:04:40.817Z,86.61
2023-01-23T15:05:40.801Z,86.82
2023-01-23T15:06:40.844Z,87.03
2023-01-23T15:07:40.834Z,87.03
2023-01-23T15:08:40.779Z,87.13
2023-01-23T15:09:40.781Z,87.13
2023-01-23T15:10:40.761Z,86.92
2023-01-23T15:11:40.740Z,86.71
2023-01-23T15:12:40.728Z,86.71
2023-01-23T15:13:40.705Z,86.82
2023-01-23T15:14:40.716Z,87.13
2023-01-23T15:15:40.703Z,87.24
2023-01-23T15:16:40.783Z,87.13
2023-01-23T15:17:40.640Z,87.13
2023-01-23T15:18:40.679Z,87.24
2023-01-23T15:19:40.658Z,87.24
2023-01-23T15:20:40.645Z,87.24
2023-01-23T15:21:40.602Z,87.34
2023-01-23T15:22:40.591Z,87.55
2023-01-23T15:23:40.597Z,87.55
2023-01-23T15:24:40.624Z,87.34
2023-01-23T15:25:40.592Z,87.34
2023-01-23T15:26:40.695Z,87.13
2023-01-23T15:27:40.550Z,87.13
2023-01-23T15:28:40.509Z,87.03
2023-01-23T15:29:40.505Z,86.78
2023-01-23T15:30:40.546Z,86.78
2023-01-23T15:31:41.483Z,86.92
2023-01-23T15:32:40.466Z,86.92
2023-01-23T15:33:40.449Z,87.03
2023-01-23T15:34:40.471Z,86.92
2023-01-23T15:35:40.406Z,86.78
2023-01-23T15:36:40.416Z,86.68
2023-01-23T15:37:40.395Z,86.71
2023-01-23T15:38:40.387Z,86.57
2023-01-23T15:39:40.494Z,86.61
2023-01-23T15:40:40.359Z,86.61
2023-01-23T15:41:40.351Z,86.71
2023-01-23T15:42:40.348Z,86.92
2023-01-23T15:43:40.313Z,87.03
2023-01-23T15:44:40.294Z,87.13
2023-01-23T15:45:40.301Z,87.45
2023-01-23T15:46:40.334Z,87.66
2023-01-23T15:47:40.257Z,87.76
2023-01-23T15:48:40.320Z,87.76
2023-01-23T15:49:40.327Z,87.76
2023-01-23T15:50:40.234Z,87.76
2023-01-23T15:51:40.205Z,87.76
2023-01-23T15:52:40.187Z,87.76
2023-01-23T15:53:40.234Z,87.76
2023-01-23T15:54:40.162Z,87.66
2023-01-23T15:55:40.183Z,87.76
2023-01-23T15:56:40.151Z,87.66
2023-01-23T15:57:40.154Z,87.66
2023-01-23T15:58:40.137Z,87.66
2023-01-23T15:59:40.126Z,87.55
2023-01-23T16:00:40.097Z,87.66
2023-01-23T16:01:40.182Z,87.87
2023-01-23T16:02:54.761Z,87.87
2023-01-23T16:03:40.133Z,87.83
2023-01-23T16:04:40.060Z,87.93
2023-01-23T16:05:40.070Z,88.24
2023-01-23T16:06:40.018Z,88.24
2023-01-23T16:07:40.036Z,88.04
2023-01-23T16:08:40.006Z,88.14
2023-01-23T16:09:39.989Z,88.04
2023-01-23T16:10:39.971Z,87.93
2023-01-23T16:11:39.946Z,87.72
2023-01-23T16:12:40.006Z,87.72
2023-01-23T16:13:39.947Z,87.83
2023-01-23T16:14:39.908Z,87.62
2023-01-23T16:15:39.917Z,87.62
2023-01-23T16:16:39.990Z,87.41
2023-01-23T16:17:39.876Z,87.41
2023-01-23T16:18:39.874Z,87.62
2023-01-23T16:19:39.844Z,87.62
2023-01-23T16:20:39.861Z,87.72
2023-01-23T16:21:39.834Z,87.51
2023-01-23T16:22:39.845Z,87.51
2023-01-23T16:23:47.189Z,87.62
2023-01-23T16:24:39.867Z,87.72
2023-01-23T16:25:44.451Z,87.83
2023-01-23T16:26:39.785Z,87.93
2023-01-23T16:27:39.761Z,88.04
2023-01-23T16:28:39.731Z,87.93
2023-01-23T16:29:39.768Z,87.93
2023-01-23T16:30:39.700Z,87.93
2023-01-23T16:31:39.813Z,87.83
2023-01-23T16:32:39.839Z,87.93
2023-01-23T16:33:39.665Z,88.14
2023-01-23T16:34:39.772Z,88.35
2023-01-23T16:35:39.699Z,88.35
2023-01-23T16:36:39.645Z,88.35
2023-01-23T16:37:39.615Z,88.35
2023-01-23T16:38:39.596Z,88.35
2023-01-23T16:39:39.631Z,88.35
2023-01-23T16:40:39.567Z,88.18
2023-01-23T16:41:39.588Z,88.35
2023-01-23T16:42:39.570Z,88.24
2023-01-23T16:43:39.571Z,88.29
2023-01-23T16:44:39.513Z,88.24
2023-01-23T16:45:39.515Z,88.29
2023-01-23T16:46:39.531Z,88.39
2023-01-23T16:47:39.545Z,88.56
2023-01-23T16:48:39.476Z,88.56
2023-01-23T16:49:51.600Z,88.92
2023-01-23T16:50:39.456Z,89.02
2023-01-23T16:51:39.469Z,88.98
2023-01-23T16:52:39.431Z,88.98
2023-01-23T16:53:39.406Z,89.02
2023-01-23T16:54:39.411Z,88.92
2023-01-23T16:55:39.407Z,88.92
2023-01-23T16:56:39.377Z,89.12
2023-01-23T16:57:39.378Z,89.44
2023-01-23T16:58:39.365Z,89.54
2023-01-23T16:59:39.340Z,89.44
2023-01-23T17:00:39.414Z,89.44
2023-01-23T17:01:39.342Z,89.75
2023-01-23T17:02:39.303Z,89.65
2023-01-23T17:03:39.284Z,89.44
2023-01-23T17:04:39.256Z,89.44
2023-01-23T17:05:39.285Z,89.23
2023-01-23T17:06:39.250Z,89.34
2023-01-23T17:07:39.223Z,89.75
2023-01-23T17:08:39.213Z,89.97
2023-01-23T17:09:39.233Z,89.97
2023-01-23T17:10:46.226Z,89.97
2023-01-23T17:11:39.176Z,89.75
2023-01-23T17:12:39.183Z,89.54
2023-01-23T17:13:39.143Z,89.44
2023-01-23T17:14:39.141Z,89.54
2023-01-23T17:15:39.126Z,89.75
2023-01-23T17:16:39.206Z,89.54
2023-01-23T17:17:39.099Z,89.44
2023-01-23T17:18:39.085Z,89.75
2023-01-23T17:19:39.958Z,89.75
2023-01-23T17:20:39.988Z,89.65
2023-01-23T17:21:39.077Z,89.54
2023-01-23T17:22:39.061Z,89.44
2023-01-23T17:23:39.027Z,89.54
2023-01-23T17:24:39.009Z,89.86
2023-01-23T17:25:50.821Z,89.82
2023-01-23T17:26:38.999Z,89.72
2023-01-23T17:27:45.462Z,89.72
2023-01-23T17:28:38.949Z,89.61
2023-01-23T17:29:38.965Z,89.40
2023-01-23T17:30:38.935Z,89.61
2023-01-23T17:31:39.018Z,89.61
2023-01-23T17:32:38.905Z,89.61
2023-01-23T17:33:38.891Z,89.72
2023-01-23T17:34:48.925Z,89.61
2023-01-23T17:35:38.876Z,89.29
2023-01-23T17:36:38.876Z,89.19
2023-01-23T17:37:38.869Z,89.19
2023-01-23T17:38:38.824Z,89.19
2023-01-23T17:39:38.825Z,89.09
2023-01-23T17:40:38.834Z,88.98
2023-01-23T17:41:38.804Z,89.29
2023-01-23T17:42:38.760Z,89.29
2023-01-23T17:43:38.761Z,89.19
2023-01-23T17:44:38.775Z,89.19
2023-01-23T17:45:38.747Z,89.50
2023-01-23T17:46:38.746Z,89.72
2023-01-23T17:47:38.702Z,89.82
2023-01-23T17:48:38.690Z,89.82
2023-01-23T17:49:38.675Z,89.50
2023-01-23T17:50:38.693Z,89.40
2023-01-23T17:51:38.653Z,89.29
2023-01-23T17:52:38.661Z,89.29
2023-01-23T17:53:38.625Z,89.44
2023-01-23T17:54:38.614Z,89.65
2023-01-23T17:55:38.992Z,89.86
2023-01-23T17:56:38.603Z,89.97
2023-01-23T17:57:38.587Z,90.07
2023-01-23T17:58:38.565Z,90.17
2023-01-23T17:59:38.569Z,90.17
2023-01-23T18:00:38.540Z,90.49
2023-01-23T18:01:38.549Z,90.49
2023-01-23T18:02:38.579Z,90.49
2023-01-23T18:03:38.507Z,90.59
2023-01-23T18:04:38.493Z,90.70
2023-01-23T18:05:38.480Z,90.70
2023-01-23T18:06:38.468Z,90.70
2023-01-23T18:07:52.331Z,91.01
2023-01-23T18:08:38.449Z,91.01